sensor_id;sensor_type;location;lat;lon;timestamp;pressure;altitude;pressure_sealevel;temperature;humidity
64683;BME280;51107;47.652;19.016;2023-08-07T00:00:25;99011.97;;;15.05;91.82
64683;BME280;51107;47.652;19.016;2023-08-07T00:02:53;99009.72;;;14.95;92.87
64683;BME280;51107;47.652;19.016;2023-08-07T00:05:21;99016.97;;;14.93;92.04
64683;BME280;51107;47.652;19.016;2023-08-07T00:07:50;99004.47;;;14.95;93.13
64683;BME280;51107;47.652;19.016;2023-08-07T00:10:18;99008.72;;;14.96;93.88
64683;BME280;51107;47.652;19.016;2023-08-07T00:12:47;98998.44;;;14.94;93.45
64683;BME280;51107;47.652;19.016;2023-08-07T00:15:15;98998.00;;;14.84;92.87
64683;BME280;51107;47.652;19.016;2023-08-07T00:17:44;99003.50;;;15.03;91.69
64683;BME280;51107;47.652;19.016;2023-08-07T00:20:12;98995.41;;;14.98;92.11
64683;BME280;51107;47.652;19.016;2023-08-07T00:22:40;98999.03;;;14.97;92.56
64683;BME280;51107;47.652;19.016;2023-08-07T00:25:09;98996.81;;;14.93;92.57
64683;BME280;51107;47.652;19.016;2023-08-07T00:27:37;99009.72;;;14.88;95.13
64683;BME280;51107;47.652;19.016;2023-08-07T00:30:06;98999.44;;;14.93;93.86
64683;BME280;51107;47.652;19.016;2023-08-07T00:32:34;99000.25;;;14.94;94.05
64683;BME280;51107;47.652;19.016;2023-08-07T00:35:03;98999.25;;;14.95;93.56
64683;BME280;51107;47.652;19.016;2023-08-07T00:37:32;98985.09;;;14.89;91.62
64683;BME280;51107;47.652;19.016;2023-08-07T00:40:02;99001.63;;;14.90;93.18
64683;BME280;51107;47.652;19.016;2023-08-07T00:42:31;98999.44;;;14.93;94.26
64683;BME280;51107;47.652;19.016;2023-08-07T00:44:59;99006.84;;;14.76;95.00
64683;BME280;51107;47.652;19.016;2023-08-07T00:47:29;98996.00;;;14.86;93.80
64683;BME280;51107;47.652;19.016;2023-08-07T00:49:58;98999.00;;;14.83;95.52
64683;BME280;51107;47.652;19.016;2023-08-07T00:52:27;98996.00;;;14.93;94.09
64683;BME280;51107;47.652;19.016;2023-08-07T00:54:56;99005.59;;;14.72;96.07
64683;BME280;51107;47.652;19.016;2023-08-07T00:57:24;99007.47;;;14.78;96.77
64683;BME280;51107;47.652;19.016;2023-08-07T00:59:53;99014.41;;;14.58;95.01
64683;BME280;51107;47.652;19.016;2023-08-07T01:02:22;99015.94;;;14.74;96.08
64683;BME280;51107;47.652;19.016;2023-08-07T01:04:50;99012.25;;;14.68;97.49
64683;BME280;51107;47.652;19.016;2023-08-07T01:07:18;99014.47;;;14.65;98.27
64683;BME280;51107;47.652;19.016;2023-08-07T01:09:46;99019.00;;;14.49;96.94
64683;BME280;51107;47.652;19.016;2023-08-07T01:12:22;99014.22;;;14.59;96.43
64683;BME280;51107;47.652;19.016;2023-08-07T01:15:07;98998.28;;;14.61;95.72
64683;BME280;51107;47.652;19.016;2023-08-07T01:17:38;99006.59;;;14.65;98.13
64683;BME280;51107;47.652;19.016;2023-08-07T01:20:08;99008.81;;;14.68;100.00
64683;BME280;51107;47.652;19.016;2023-08-07T01:22:37;99006.53;;;14.58;98.34
64683;BME280;51107;47.652;19.016;2023-08-07T01:25:06;99014.47;;;14.65;97.79
64683;BME280;51107;47.652;19.016;2023-08-07T01:28:16;99012.84;;;14.64;97.88
64683;BME280;51107;47.652;19.016;2023-08-07T01:30:50;99019.41;;;14.53;94.42
64683;BME280;51107;47.652;19.016;2023-08-07T01:33:34;99020.66;;;14.57;96.61
64683;BME280;51107;47.652;19.016;2023-08-07T01:36:05;99011.31;;;14.89;91.48
64683;BME280;51107;47.652;19.016;2023-08-07T01:38:36;99015.31;;;14.78;92.02
64683;BME280;51107;47.652;19.016;2023-08-07T01:41:06;99024.59;;;14.74;92.52
64683;BME280;51107;47.652;19.016;2023-08-07T01:43:34;99016.75;;;14.81;92.76
64683;BME280;51107;47.652;19.016;2023-08-07T01:46:03;99023.38;;;14.77;92.58
64683;BME280;51107;47.652;19.016;2023-08-07T01:48:33;99027.59;;;14.71;93.44
64683;BME280;51107;47.652;19.016;2023-08-07T01:51:01;99034.66;;;14.71;92.81
64683;BME280;51107;47.652;19.016;2023-08-07T01:53:30;99035.88;;;14.75;93.12
64683;BME280;51107;47.652;19.016;2023-08-07T01:55:58;99041.31;;;14.73;93.66
64683;BME280;51107;47.652;19.016;2023-08-07T01:58:26;99034.69;;;14.77;92.54
64683;BME280;51107;47.652;19.016;2023-08-07T02:00:55;99044.75;;;14.74;92.95
64683;BME280;51107;47.652;19.016;2023-08-07T02:03:23;99048.78;;;14.70;93.61
64683;BME280;51107;47.652;19.016;2023-08-07T02:05:51;99051.81;;;14.73;91.56
64683;BME280;51107;47.652;19.016;2023-08-07T02:08:20;99052.62;;;14.74;91.00
64683;BME280;51107;47.652;19.016;2023-08-07T02:10:48;99042.31;;;14.66;93.13
64683;BME280;51107;47.652;19.016;2023-08-07T02:13:16;99051.75;;;14.67;93.65
64683;BME280;51107;47.652;19.016;2023-08-07T02:15:45;99045.97;;;14.71;93.16
64683;BME280;51107;47.652;19.016;2023-08-07T02:18:13;99044.94;;;14.66;93.16
64683;BME280;51107;47.652;19.016;2023-08-07T02:20:41;99044.81;;;14.52;93.06
64683;BME280;51107;47.652;19.016;2023-08-07T02:23:09;99050.97;;;14.66;91.58
64683;BME280;51107;47.652;19.016;2023-08-07T02:25:38;99051.53;;;14.61;90.72
64683;BME280;51107;47.652;19.016;2023-08-07T02:28:06;99042.31;;;14.66;89.46
64683;BME280;51107;47.652;19.016;2023-08-07T02:30:34;99039.00;;;14.57;89.79
64683;BME280;51107;47.652;19.016;2023-08-07T02:33:03;99041.84;;;14.62;90.99
64683;BME280;51107;47.652;19.016;2023-08-07T02:35:31;99043.13;;;14.73;88.92
64683;BME280;51107;47.652;19.016;2023-08-07T02:38:00;99047.91;;;14.63;89.12
64683;BME280;51107;47.652;19.016;2023-08-07T02:40:28;99049.16;;;14.67;88.99
64683;BME280;51107;47.652;19.016;2023-08-07T02:42:58;99051.06;;;14.51;89.40
64683;BME280;51107;47.652;19.016;2023-08-07T02:45:26;99038.00;;;14.58;89.11
64683;BME280;51107;47.652;19.016;2023-08-07T02:47:54;99029.72;;;14.61;89.46
64683;BME280;51107;47.652;19.016;2023-08-07T02:50:23;99036.34;;;14.50;90.55
64683;BME280;51107;47.652;19.016;2023-08-07T02:52:52;99028.88;;;14.47;89.73
64683;BME280;51107;47.652;19.016;2023-08-07T02:55:20;99035.34;;;14.51;89.70
64683;BME280;51107;47.652;19.016;2023-08-07T02:57:48;99034.53;;;14.51;88.83
64683;BME280;51107;47.652;19.016;2023-08-07T03:00:17;99039.59;;;14.52;90.37
64683;BME280;51107;47.652;19.016;2023-08-07T03:02:45;99037.56;;;14.54;88.88
64683;BME280;51107;47.652;19.016;2023-08-07T03:05:14;99037.34;;;14.49;88.64
64683;BME280;51107;47.652;19.016;2023-08-07T03:07:42;99037.56;;;14.54;87.97
64683;BME280;51107;47.652;19.016;2023-08-07T03:10:11;99043.19;;;14.51;88.84
64683;BME280;51107;47.652;19.016;2023-08-07T03:12:39;99038.56;;;14.47;88.84
64683;BME280;51107;47.652;19.016;2023-08-07T03:15:08;99053.88;;;14.50;87.49
64683;BME280;51107;47.652;19.016;2023-08-07T03:17:36;99053.09;;;14.56;86.18
64683;BME280;51107;47.652;19.016;2023-08-07T03:20:05;99045.63;;;14.53;86.74
64683;BME280;51107;47.652;19.016;2023-08-07T03:22:34;99059.91;;;14.43;87.80
64683;BME280;51107;47.652;19.016;2023-08-07T03:25:02;99060.12;;;14.49;87.08
64683;BME280;51107;47.652;19.016;2023-08-07T03:27:31;99061.97;;;14.55;86.27
64683;BME280;51107;47.652;19.016;2023-08-07T03:29:59;99069.16;;;14.46;86.21
64683;BME280;51107;47.652;19.016;2023-08-07T03:32:28;99069.97;;;14.40;86.51
64683;BME280;51107;47.652;19.016;2023-08-07T03:34:57;99075.78;;;14.35;89.28
64683;BME280;51107;47.652;19.016;2023-08-07T03:37:25;99082.03;;;14.34;88.60
64683;BME280;51107;47.652;19.016;2023-08-07T03:39:53;99088.00;;;14.28;89.13
64683;BME280;51107;47.652;19.016;2023-08-07T03:42:21;99082.56;;;14.23;90.99
64683;BME280;51107;47.652;19.016;2023-08-07T03:44:50;99088.97;;;14.20;89.86
64683;BME280;51107;47.652;19.016;2023-08-07T03:47:18;99078.87;;;14.17;90.30
64683;BME280;51107;47.652;19.016;2023-08-07T03:49:46;99090.81;;;14.26;90.36
64683;BME280;51107;47.652;19.016;2023-08-07T03:52:14;99093.41;;;14.20;90.13
64683;BME280;51107;47.652;19.016;2023-08-07T03:54:44;99081.59;;;14.31;90.41
64683;BME280;51107;47.652;19.016;2023-08-07T03:57:12;99085.34;;;14.21;91.48
64683;BME280;51107;47.652;19.016;2023-08-07T03:59:40;99086.41;;;14.27;90.49
64683;BME280;51107;47.652;19.016;2023-08-07T04:02:08;99089.69;;;14.07;91.84
64683;BME280;51107;47.652;19.016;2023-08-07T04:04:37;99093.72;;;14.10;91.38
64683;BME280;51107;47.652;19.016;2023-08-07T04:07:05;99093.91;;;14.08;92.08
64683;BME280;51107;47.652;19.016;2023-08-07T04:09:33;99103.66;;;14.15;90.14
64683;BME280;51107;47.652;19.016;2023-08-07T04:12:02;99097.97;;;14.11;90.20
64683;BME280;51107;47.652;19.016;2023-08-07T04:14:31;99095.31;;;14.33;88.56
64683;BME280;51107;47.652;19.016;2023-08-07T04:16:59;99093.25;;;14.28;88.17
64683;BME280;51107;47.652;19.016;2023-08-07T04:19:28;99091.56;;;14.14;90.23
64683;BME280;51107;47.652;19.016;2023-08-07T04:21:57;99100.00;;;14.16;89.83
64683;BME280;51107;47.652;19.016;2023-08-07T04:24:24;99104.06;;;14.18;91.87
64683;BME280;51107;47.652;19.016;2023-08-07T04:26:53;99102.13;;;14.27;88.88
64683;BME280;51107;47.652;19.016;2023-08-07T04:29:22;99097.06;;;14.25;89.26
64683;BME280;51107;47.652;19.016;2023-08-07T04:31:50;99102.88;;;14.21;90.54
64683;BME280;51107;47.652;19.016;2023-08-07T04:34:18;99099.66;;;14.19;90.67
64683;BME280;51107;47.652;19.016;2023-08-07T04:36:47;99101.87;;;14.22;89.82
64683;BME280;51107;47.652;19.016;2023-08-07T04:39:15;99097.06;;;14.25;90.04
64683;BME280;51107;47.652;19.016;2023-08-07T04:41:43;99093.34;;;14.41;88.58
64683;BME280;51107;47.652;19.016;2023-08-07T04:44:11;99096.59;;;14.43;91.02
64683;BME280;51107;47.652;19.016;2023-08-07T04:46:39;99080.00;;;14.36;88.67
64683;BME280;51107;47.652;19.016;2023-08-07T04:49:09;99085.38;;;14.56;86.04
64683;BME280;51107;47.652;19.016;2023-08-07T04:51:37;99088.06;;;14.63;84.88
64683;BME280;51107;47.652;19.016;2023-08-07T04:54:05;99087.03;;;14.64;85.48
64683;BME280;51107;47.652;19.016;2023-08-07T04:56:34;99085.25;;;14.65;84.28
64683;BME280;51107;47.652;19.016;2023-08-07T04:59:02;99077.41;;;14.71;84.30
64683;BME280;51107;47.652;19.016;2023-08-07T05:01:30;99086.28;;;14.70;85.04
64683;BME280;51107;47.652;19.016;2023-08-07T05:03:59;99082.12;;;14.89;83.01
64683;BME280;51107;47.652;19.016;2023-08-07T05:06:27;99075.06;;;14.90;82.81
64683;BME280;51107;47.652;19.016;2023-08-07T05:08:55;99085.16;;;14.93;80.73
64683;BME280;51107;47.652;19.016;2023-08-07T05:11:24;99078.94;;;15.01;81.85
64683;BME280;51107;47.652;19.016;2023-08-07T05:13:52;99093.09;;;15.13;80.60
64683;BME280;51107;47.652;19.016;2023-08-07T05:16:20;99098.94;;;15.02;80.54
64683;BME280;51107;47.652;19.016;2023-08-07T05:18:48;99096.97;;;15.17;79.18
64683;BME280;51107;47.652;19.016;2023-08-07T05:21:18;99110.91;;;15.24;79.04
64683;BME280;51107;47.652;19.016;2023-08-07T05:23:46;99101.84;;;15.34;77.25
64683;BME280;51107;47.652;19.016;2023-08-07T05:26:16;99102.44;;;15.29;77.92
64683;BME280;51107;47.652;19.016;2023-08-07T05:28:45;99101.03;;;15.26;80.83
64683;BME280;51107;47.652;19.016;2023-08-07T05:31:13;99103.06;;;15.38;78.59
64683;BME280;51107;47.652;19.016;2023-08-07T05:33:41;99103.50;;;15.41;78.46
64683;BME280;51107;47.652;19.016;2023-08-07T05:36:10;99108.34;;;15.44;77.46
64683;BME280;51107;47.652;19.016;2023-08-07T05:38:38;99108.53;;;15.43;77.92
64683;BME280;51107;47.652;19.016;2023-08-07T05:41:08;99114.81;;;15.49;76.06
64683;BME280;51107;47.652;19.016;2023-08-07T05:43:36;99118.03;;;15.51;77.23
64683;BME280;51107;47.652;19.016;2023-08-07T05:46:05;99125.31;;;15.55;79.54
64683;BME280;51107;47.652;19.016;2023-08-07T05:48:33;99116.44;;;15.63;77.16
64683;BME280;51107;47.652;19.016;2023-08-07T05:51:02;99123.31;;;15.64;76.95
64683;BME280;51107;47.652;19.016;2023-08-07T05:53:30;99127.78;;;15.70;76.65
64683;BME280;51107;47.652;19.016;2023-08-07T05:55:58;99121.12;;;15.81;77.42
64683;BME280;51107;47.652;19.016;2023-08-07T05:58:26;99137.13;;;16.00;75.10
64683;BME280;51107;47.652;19.016;2023-08-07T06:00:54;99139.72;;;15.86;75.27
64683;BME280;51107;47.652;19.016;2023-08-07T06:03:23;99151.25;;;15.92;74.11
64683;BME280;51107;47.652;19.016;2023-08-07T06:05:51;99145.00;;;15.86;73.54
64683;BME280;51107;47.652;19.016;2023-08-07T06:08:19;99152.47;;;15.89;73.47
64683;BME280;51107;47.652;19.016;2023-08-07T06:10:48;99164.81;;;15.95;73.24
64683;BME280;51107;47.652;19.016;2023-08-07T06:13:16;99152.25;;;15.98;74.01
64683;BME280;51107;47.652;19.016;2023-08-07T06:16:02;99162.78;;;15.98;73.72
64683;BME280;51107;47.652;19.016;2023-08-07T06:18:30;99180.75;;;16.07;75.42
64683;BME280;51107;47.652;19.016;2023-08-07T06:20:58;99187.84;;;16.13;73.57
64683;BME280;51107;47.652;19.016;2023-08-07T06:23:26;99190.69;;;16.05;73.56
64683;BME280;51107;47.652;19.016;2023-08-07T06:25:54;99203.22;;;16.17;74.46
64683;BME280;51107;47.652;19.016;2023-08-07T06:28:27;99198.97;;;16.09;73.14
64683;BME280;51107;47.652;19.016;2023-08-07T06:31:01;99210.31;;;16.16;74.97
64683;BME280;51107;47.652;19.016;2023-08-07T06:33:30;99193.31;;;16.12;74.09
64683;BME280;51107;47.652;19.016;2023-08-07T06:35:59;99211.06;;;16.03;73.50
64683;BME280;51107;47.652;19.016;2023-08-07T06:38:27;99213.12;;;16.08;75.99
64683;BME280;51107;47.652;19.016;2023-08-07T06:40:56;99208.28;;;16.05;77.89
64683;BME280;51107;47.652;19.016;2023-08-07T06:43:24;99209.50;;;16.09;74.35
64683;BME280;51107;47.652;19.016;2023-08-07T06:45:54;99234.72;;;16.10;75.67
64683;BME280;51107;47.652;19.016;2023-08-07T06:48:23;99241.03;;;16.22;71.54
64683;BME280;51107;47.652;19.016;2023-08-07T06:50:51;99231.34;;;16.23;71.62
64683;BME280;51107;47.652;19.016;2023-08-07T06:53:19;99242.44;;;16.05;73.45
64683;BME280;51107;47.652;19.016;2023-08-07T06:55:48;99226.06;;;16.09;72.09
64683;BME280;51107;47.652;19.016;2023-08-07T06:58:16;99237.19;;;16.05;73.58
64683;BME280;51107;47.652;19.016;2023-08-07T07:00:45;99246.06;;;16.10;73.12
64683;BME280;51107;47.652;19.016;2023-08-07T07:03:14;99252.94;;;16.18;72.83
64683;BME280;51107;47.652;19.016;2023-08-07T07:05:42;99249.09;;;16.14;72.03
64683;BME280;51107;47.652;19.016;2023-08-07T07:08:10;99251.50;;;16.02;75.06
64683;BME280;51107;47.652;19.016;2023-08-07T07:10:39;99252.72;;;16.06;74.79
64683;BME280;51107;47.652;19.016;2023-08-07T07:13:07;99263.03;;;16.08;73.34
64683;BME280;51107;47.652;19.016;2023-08-07T07:15:37;99262.63;;;16.11;71.53
64683;BME280;51107;47.652;19.016;2023-08-07T07:18:06;99271.91;;;16.07;72.39
64683;BME280;51107;47.652;19.016;2023-08-07T07:20:34;99271.16;;;16.13;71.49
64683;BME280;51107;47.652;19.016;2023-08-07T07:23:02;99267.31;;;16.22;73.10
64683;BME280;51107;47.652;19.016;2023-08-07T07:25:30;99274.56;;;16.13;71.29
64683;BME280;51107;47.652;19.016;2023-08-07T07:27:58;99270.94;;;16.28;71.06
64683;BME280;51107;47.652;19.016;2023-08-07T07:30:26;99271.78;;;16.28;70.06
64683;BME280;51107;47.652;19.016;2023-08-07T07:32:55;99263.66;;;16.23;70.70
64683;BME280;51107;47.652;19.016;2023-08-07T07:35:23;99274.81;;;16.39;70.75
64683;BME280;51107;47.652;19.016;2023-08-07T07:37:52;99257.84;;;16.61;71.18
64683;BME280;51107;47.652;19.016;2023-08-07T07:40:20;99267.34;;;16.89;70.65
64683;BME280;51107;47.652;19.016;2023-08-07T07:42:48;99264.50;;;16.84;67.65
64683;BME280;51107;47.652;19.016;2023-08-07T07:45:16;99273.00;;;17.00;69.63
64683;BME280;51107;47.652;19.016;2023-08-07T07:47:45;99268.87;;;17.44;68.44
64683;BME280;51107;47.652;19.016;2023-08-07T07:50:13;99274.03;;;17.64;64.08
64683;BME280;51107;47.652;19.016;2023-08-07T07:52:42;99266.69;;;17.79;63.65
64683;BME280;51107;47.652;19.016;2023-08-07T07:55:12;99275.66;;;17.72;64.69
64683;BME280;51107;47.652;19.016;2023-08-07T07:57:41;99267.06;;;17.90;64.29
64683;BME280;51107;47.652;19.016;2023-08-07T08:00:10;99280.44;;;18.27;61.69
64683;BME280;51107;47.652;19.016;2023-08-07T08:02:40;99283.59;;;18.42;61.22
64683;BME280;51107;47.652;19.016;2023-08-07T08:05:11;99297.50;;;18.24;60.46
64683;BME280;51107;47.652;19.016;2023-08-07T08:07:40;99276.81;;;18.28;63.14
64683;BME280;51107;47.652;19.016;2023-08-07T08:10:08;99288.69;;;18.37;61.39
64683;BME280;51107;47.652;19.016;2023-08-07T08:12:37;99293.78;;;18.64;61.51
64683;BME280;51107;47.652;19.016;2023-08-07T08:15:05;99296.34;;;18.45;58.98
64683;BME280;51107;47.652;19.016;2023-08-07T08:17:34;99301.53;;;18.59;61.32
64683;BME280;51107;47.652;19.016;2023-08-07T08:20:02;99299.91;;;18.58;62.25
64683;BME280;51107;47.652;19.016;2023-08-07T08:22:31;99307.09;;;18.69;65.64
64683;BME280;51107;47.652;19.016;2023-08-07T08:24:59;99306.56;;;18.60;60.31
64683;BME280;51107;47.652;19.016;2023-08-07T08:27:27;99312.69;;;18.86;62.09
64683;BME280;51107;47.652;19.016;2023-08-07T08:29:55;99319.91;;;18.72;60.37
64683;BME280;51107;47.652;19.016;2023-08-07T08:32:24;99328.56;;;18.54;62.42
64683;BME280;51107;47.652;19.016;2023-08-07T08:34:52;99329.13;;;18.24;62.40
64683;BME280;51107;47.652;19.016;2023-08-07T08:37:21;99323.13;;;18.42;65.02
64683;BME280;51107;47.652;19.016;2023-08-07T08:39:49;99341.06;;;18.33;62.67
64683;BME280;51107;47.652;19.016;2023-08-07T08:42:19;99327.88;;;18.33;62.67
64683;BME280;51107;47.652;19.016;2023-08-07T08:44:58;99352.00;;;18.30;62.95
64683;BME280;51107;47.652;19.016;2023-08-07T08:47:29;99330.87;;;17.98;63.04
64683;BME280;51107;47.652;19.016;2023-08-07T08:50:06;99343.69;;;17.81;62.46
64683;BME280;51107;47.652;19.016;2023-08-07T08:52:37;99346.25;;;17.43;61.84
64683;BME280;51107;47.652;19.016;2023-08-07T08:55:07;99353.31;;;17.42;63.99
64683;BME280;51107;47.652;19.016;2023-08-07T08:57:38;99357.12;;;17.53;62.38
64683;BME280;51107;47.652;19.016;2023-08-07T09:00:08;99344.19;;;17.38;64.44
64683;BME280;51107;47.652;19.016;2023-08-07T09:02:50;99365.25;;;17.45;63.49
64683;BME280;51107;47.652;19.016;2023-08-07T09:05:19;99366.88;;;17.53;63.38
64683;BME280;51107;47.652;19.016;2023-08-07T09:07:48;99359.19;;;17.58;67.93
64683;BME280;51107;47.652;19.016;2023-08-07T09:10:17;99373.53;;;17.69;68.27
64683;BME280;51107;47.652;19.016;2023-08-07T09:12:54;99379.81;;;17.68;66.36
64683;BME280;51107;47.652;19.016;2023-08-07T09:15:24;99375.75;;;17.65;64.42
64683;BME280;51107;47.652;19.016;2023-08-07T09:17:54;99376.56;;;17.65;63.55
64683;BME280;51107;47.652;19.016;2023-08-07T09:20:25;99382.25;;;17.49;64.28
64683;BME280;51107;47.652;19.016;2023-08-07T09:22:53;99380.47;;;17.43;66.03
64683;BME280;51107;47.652;19.016;2023-08-07T09:25:30;99384.31;;;17.47;65.84
64683;BME280;51107;47.652;19.016;2023-08-07T09:28:05;99382.88;;;17.58;65.08
64683;BME280;51107;47.652;19.016;2023-08-07T09:30:35;99386.72;;;17.62;64.51
64683;BME280;51107;47.652;19.016;2023-08-07T09:33:05;99386.94;;;17.34;65.90
64683;BME280;51107;47.652;19.016;2023-08-07T09:35:34;99385.34;;;17.19;65.76
64683;BME280;51107;47.652;19.016;2023-08-07T09:38:02;99396.66;;;17.00;68.44
64683;BME280;51107;47.652;19.016;2023-08-07T09:40:31;99401.91;;;16.86;68.40
64683;BME280;51107;47.652;19.016;2023-08-07T09:43:00;99404.16;;;16.89;68.05
64683;BME280;51107;47.652;19.016;2023-08-07T09:45:29;99410.22;;;16.96;68.70
64683;BME280;51107;47.652;19.016;2023-08-07T09:48:00;99416.72;;;17.07;67.69
64683;BME280;51107;47.652;19.016;2023-08-07T09:50:30;99404.56;;;17.00;67.20
64683;BME280;51107;47.652;19.016;2023-08-07T09:52:58;99408.59;;;16.82;70.06
64683;BME280;51107;47.652;19.016;2023-08-07T09:55:27;99408.38;;;16.84;68.49
64683;BME280;51107;47.652;19.016;2023-08-07T09:57:55;99422.53;;;16.76;70.19
64683;BME280;51107;47.652;19.016;2023-08-07T10:00:23;99420.28;;;16.66;68.21
64683;BME280;51107;47.652;19.016;2023-08-07T10:02:51;99430.31;;;16.42;70.86
64683;BME280;51107;47.652;19.016;2023-08-07T10:05:21;99421.31;;;16.17;71.16
64683;BME280;51107;47.652;19.016;2023-08-07T10:07:50;99425.66;;;16.44;69.40
64683;BME280;51107;47.652;19.016;2023-08-07T10:10:19;99417.47;;;16.74;69.52
64683;BME280;51107;47.652;19.016;2023-08-07T10:12:48;99413.06;;;17.48;70.80
64683;BME280;51107;47.652;19.016;2023-08-07T10:15:17;99417.38;;;18.15;67.98
64683;BME280;51107;47.652;19.016;2023-08-07T10:17:46;99415.00;;;17.93;63.88
64683;BME280;51107;47.652;19.016;2023-08-07T10:20:14;99425.78;;;17.78;66.31
64683;BME280;51107;47.652;19.016;2023-08-07T10:22:42;99420.75;;;17.57;65.91
64683;BME280;51107;47.652;19.016;2023-08-07T10:25:12;99436.37;;;17.31;65.02
64683;BME280;51107;47.652;19.016;2023-08-07T10:27:41;99427.88;;;17.03;66.37
64683;BME280;51107;47.652;19.016;2023-08-07T10:30:11;99427.88;;;17.09;68.58
64683;BME280;51107;47.652;19.016;2023-08-07T10:32:43;99428.87;;;17.08;67.96
64683;BME280;51107;47.652;19.016;2023-08-07T10:35:25;99436.87;;;16.80;68.73
64683;BME280;51107;47.652;19.016;2023-08-07T10:37:54;99442.16;;;16.87;69.31
64683;BME280;51107;47.652;19.016;2023-08-07T10:40:23;99437.72;;;16.80;69.71
64683;BME280;51107;47.652;19.016;2023-08-07T10:45:34;99452.63;;;16.53;70.90
64683;BME280;51107;47.652;19.016;2023-08-07T10:50:33;99449.25;;;16.24;71.50
64683;BME280;51107;47.652;19.016;2023-08-07T10:53:03;99463.25;;;16.32;72.70
64683;BME280;51107;47.652;19.016;2023-08-07T10:55:51;99455.75;;;16.28;73.46
64683;BME280;51107;47.652;19.016;2023-08-07T10:58:30;99457.72;;;16.13;73.55
64683;BME280;51107;47.652;19.016;2023-08-07T11:04:00;99468.06;;;16.21;75.75
64683;BME280;51107;47.652;19.016;2023-08-07T11:06:35;99453.41;;;16.05;74.17
64683;BME280;51107;47.652;19.016;2023-08-07T11:09:09;99464.47;;;15.94;76.81
64683;BME280;51107;47.652;19.016;2023-08-07T11:11:39;99458.47;;;16.07;75.02
64683;BME280;51107;47.652;19.016;2023-08-07T11:14:10;99467.78;;;16.09;73.74
64683;BME280;51107;47.652;19.016;2023-08-07T11:16:39;99463.88;;;15.99;76.02
64683;BME280;51107;47.652;19.016;2023-08-07T11:19:08;99456.53;;;15.87;74.63
64683;BME280;51107;47.652;19.016;2023-08-07T11:21:37;99458.03;;;15.96;75.56
64683;BME280;51107;47.652;19.016;2023-08-07T11:24:06;99461.16;;;16.20;75.17
64683;BME280;51107;47.652;19.016;2023-08-07T11:26:34;99459.94;;;16.16;75.28
64683;BME280;51107;47.652;19.016;2023-08-07T11:29:03;99451.81;;;16.11;75.03
64683;BME280;51107;47.652;19.016;2023-08-07T11:31:31;99456.47;;;16.16;77.49
64683;BME280;51107;47.652;19.016;2023-08-07T11:33:59;99456.31;;;16.24;77.72
64683;BME280;51107;47.652;19.016;2023-08-07T11:36:30;99454.84;;;16.08;78.31
64683;BME280;51107;47.652;19.016;2023-08-07T11:39:00;99462.38;;;16.18;75.57
64683;BME280;51107;47.652;19.016;2023-08-07T11:41:31;99461.53;;;16.10;74.95
64683;BME280;51107;47.652;19.016;2023-08-07T11:44:00;99452.09;;;15.88;75.22
64683;BME280;51107;47.652;19.016;2023-08-07T11:46:28;99466.31;;;16.00;76.96
64683;BME280;51107;47.652;19.016;2023-08-07T11:48:56;99470.97;;;15.98;76.59
64683;BME280;51107;47.652;19.016;2023-08-07T11:51:25;99469.78;;;16.01;76.82
64683;BME280;51107;47.652;19.016;2023-08-07T11:53:53;99471.31;;;15.88;77.99
64683;BME280;51107;47.652;19.016;2023-08-07T11:56:24;99454.84;;;16.08;76.21
64683;BME280;51107;47.652;19.016;2023-08-07T11:58:53;99469.78;;;16.01;76.57
64683;BME280;51107;47.652;19.016;2023-08-07T12:01:25;99474.16;;;15.93;76.84
64683;BME280;51107;47.652;19.016;2023-08-07T12:03:56;99470.69;;;15.86;78.33
64683;BME280;51107;47.652;19.016;2023-08-07T12:06:25;99471.31;;;15.95;78.57
64683;BME280;51107;47.652;19.016;2023-08-07T12:08:55;99465.13;;;16.03;80.91
64683;BME280;51107;47.652;19.016;2023-08-07T12:11:24;99471.44;;;16.15;78.27
64683;BME280;51107;47.652;19.016;2023-08-07T12:13:53;99477.84;;;16.06;76.56
64683;BME280;51107;47.652;19.016;2023-08-07T12:16:22;99468.22;;;16.20;78.06
64683;BME280;51107;47.652;19.016;2023-08-07T12:18:51;99480.56;;;16.19;77.08
64683;BME280;51107;47.652;19.016;2023-08-07T12:21:21;99469.78;;;16.07;77.72
64683;BME280;51107;47.652;19.016;2023-08-07T12:23:56;99470.75;;;16.00;78.88
64683;BME280;51107;47.652;19.016;2023-08-07T12:26:25;99477.91;;;16.12;78.27
64683;BME280;51107;47.652;19.016;2023-08-07T12:28:53;99471.44;;;16.15;76.48
64683;BME280;51107;47.652;19.016;2023-08-07T12:31:22;99478.41;;;15.94;79.93
64683;BME280;51107;47.652;19.016;2023-08-07T12:33:51;99482.63;;;15.89;77.66
64683;BME280;51107;47.652;19.016;2023-08-07T12:36:20;99472.09;;;15.89;77.96
64683;BME280;51107;47.652;19.016;2023-08-07T12:38:48;99480.13;;;15.81;78.86
64683;BME280;51107;47.652;19.016;2023-08-07T12:41:17;99472.59;;;15.49;78.22
64683;BME280;51107;47.652;19.016;2023-08-07T12:43:48;99486.78;;;15.55;80.00
64683;BME280;51107;47.652;19.016;2023-08-07T12:46:16;99495.34;;;15.63;80.06
64683;BME280;51107;47.652;19.016;2023-08-07T12:48:48;99498.97;;;15.62;80.64
64683;BME280;51107;47.652;19.016;2023-08-07T12:51:16;99492.47;;;15.58;78.65
64683;BME280;51107;47.652;19.016;2023-08-07T12:53:44;99502.44;;;15.70;74.46
64683;BME280;51107;47.652;19.016;2023-08-07T12:56:13;99498.31;;;15.54;75.64
64683;BME280;51107;47.652;19.016;2023-08-07T12:58:41;99491.22;;;15.54;75.78
64683;BME280;51107;47.652;19.016;2023-08-07T13:01:10;99496.47;;;15.54;76.02
64683;BME280;51107;47.652;19.016;2023-08-07T13:03:39;99493.59;;;15.49;77.28
64683;BME280;51107;47.652;19.016;2023-08-07T13:06:07;99491.53;;;15.66;74.78
64683;BME280;51107;47.652;19.016;2023-08-07T13:08:36;99506.00;;;15.55;78.48